aviador You're here:

LFMP Decoded Metar

Perpignan in FRANCE
Report Time2017-10-17 11:00:00
UTC Time2017-10-17 11:27:19
Flight Rules vfr VFR
Wind100° at 16 kt
W.Decomp.*RWY 13: 13.9 kt HW 8 kt LCW
RWY 15: 10.3 kt HW 12.3 kt LCW
W.Rank100° ranks 12
Current wind is above 100° avg. (7.6)
Visibility9999 m
Phenomena:N/A
Clouds:Few 043 Hf
Expected CloudBase > 2,400 ft AGL from Temp-Dew spread
CeilingNone
Temp22°C (ISA +7)
Dew Point16°C (69% RH)
AAT18.2°C
QNH1022 hPa
Density Alt948 ft
Elevation157 ft
Report Wrong Elevation
Raw Report
LFMP 171100Z AUTO 10016KT 9999 FEW043 22/16 Q1022 TEMPO
14020G30KT=

Extra information for LFMP:More info

Metar Taf Metar & Taf Last 4 Metars F.Rules Stats Wind Profile Meteogram Temp Stats Airport Information Weather charts Add Link Nearby VenuesMetar ALERT Operation Metar Decoded Social comments